createdAt,value
2019-05-22T00:01:33.269Z,12.70
2019-05-22T00:04:01.864Z,12.70
2019-05-22T00:06:27.322Z,12.60
2019-05-22T00:08:49.982Z,12.60
2019-05-22T00:11:12.188Z,12.60
2019-05-22T00:13:32.328Z,12.60
2019-05-22T00:15:54.161Z,12.70
2019-05-22T00:18:16.236Z,12.70
2019-05-22T00:20:37.307Z,12.70
2019-05-22T00:23:00.289Z,12.70
2019-05-22T00:25:20.976Z,12.80
2019-05-22T00:27:43.837Z,12.80
2019-05-22T00:30:06.468Z,12.80
2019-05-22T00:32:27.205Z,12.70
2019-05-22T00:34:48.609Z,12.60
2019-05-22T00:37:09.772Z,12.60
2019-05-22T00:39:30.618Z,12.60
2019-05-22T00:41:51.851Z,12.50
2019-05-22T00:44:13.728Z,12.50
2019-05-22T00:46:43.976Z,12.50
2019-05-22T00:49:04.943Z,12.50
2019-05-22T00:51:30.976Z,12.40
2019-05-22T00:54:09.079Z,12.40
2019-05-22T00:56:31.547Z,12.40
2019-05-22T00:59:09.771Z,12.50
2019-05-22T01:01:32.569Z,12.40
2019-05-22T01:03:53.413Z,12.30
2019-05-22T01:06:15.201Z,12.10
2019-05-22T01:08:37.249Z,12.00
2019-05-22T01:10:58.304Z,11.90
2019-05-22T01:13:21.345Z,11.90
2019-05-22T01:15:41.885Z,11.90
2019-05-22T01:18:06.504Z,11.90
2019-05-22T01:20:28.503Z,11.90
2019-05-22T01:22:50.350Z,11.90
2019-05-22T01:25:14.200Z,12.00
2019-05-22T01:27:36.162Z,12.20
2019-05-22T01:29:57.254Z,12.30
2019-05-22T01:32:25.106Z,12.20
2019-05-22T01:34:45.727Z,12.20
2019-05-22T01:37:07.773Z,12.00
2019-05-22T01:39:37.681Z,11.80
2019-05-22T01:42:01.663Z,11.80
2019-05-22T01:44:24.653Z,11.80
2019-05-22T01:46:46.044Z,11.70
2019-05-22T01:49:10.255Z,11.60
2019-05-22T01:51:31.444Z,11.60
2019-05-22T01:53:52.035Z,11.60
2019-05-22T01:56:13.493Z,11.80
2019-05-22T01:58:34.319Z,11.80
2019-05-22T02:00:55.701Z,11.90
2019-05-22T02:03:17.798Z,12.00
2019-05-22T02:05:38.834Z,12.00
2019-05-22T02:07:59.639Z,12.00
2019-05-22T02:10:24.634Z,12.00
2019-05-22T02:12:49.516Z,12.00
2019-05-22T02:15:11.149Z,11.90
2019-05-22T02:17:33.908Z,11.80
2019-05-22T02:19:54.632Z,11.80
2019-05-22T02:22:17.045Z,11.80
2019-05-22T02:24:38.361Z,11.90
2019-05-22T02:26:59.211Z,11.90
2019-05-22T02:29:21.363Z,12.00
2019-05-22T02:31:43.761Z,11.90
2019-05-22T02:34:07.157Z,11.80
2019-05-22T02:36:28.517Z,11.80
2019-05-22T02:38:49.022Z,11.80
2019-05-22T02:41:14.253Z,11.80
2019-05-22T02:43:33.516Z,11.80
2019-05-22T02:45:54.886Z,11.80
2019-05-22T02:48:15.762Z,11.80
2019-05-22T02:50:37.717Z,11.90
2019-05-22T02:52:59.087Z,11.80
2019-05-22T02:55:19.882Z,11.80
2019-05-22T02:57:40.593Z,11.70
2019-05-22T03:00:01.744Z,11.70
2019-05-22T03:02:24.186Z,11.70
2019-05-22T03:04:57.459Z,11.60
2019-05-22T03:07:18.436Z,11.60
2019-05-22T03:09:38.405Z,11.50
2019-05-22T03:12:01.824Z,11.50
2019-05-22T03:14:21.583Z,11.60
2019-05-22T03:16:54.216Z,11.60
2019-05-22T03:19:17.798Z,11.50
2019-05-22T03:21:40.420Z,11.50
2019-05-22T03:24:02.280Z,11.40
2019-05-22T03:26:42.263Z,11.40
2019-05-22T03:29:02.400Z,11.40
2019-05-22T03:31:22.998Z,11.40
2019-05-22T03:33:44.336Z,11.40
2019-05-22T03:36:10.638Z,11.40
2019-05-22T03:38:32.779Z,11.40
2019-05-22T03:40:53.691Z,11.50
2019-05-22T03:43:17.263Z,11.40
2019-05-22T03:45:39.928Z,11.30
2019-05-22T03:48:01.624Z,11.20
2019-05-22T03:50:23.857Z,11.10
2019-05-22T03:52:43.952Z,11.10
2019-05-22T03:55:07.378Z,11.00
2019-05-22T03:57:28.009Z,10.90
2019-05-22T03:59:48.929Z,10.80
2019-05-22T04:02:10.453Z,10.80
2019-05-22T04:04:36.431Z,10.80
2019-05-22T04:06:57.750Z,10.70
2019-05-22T04:09:22.765Z,10.60
2019-05-22T04:11:46.637Z,10.70
2019-05-22T04:14:07.486Z,10.70
2019-05-22T04:16:29.745Z,10.60
2019-05-22T04:18:51.231Z,10.70
2019-05-22T04:21:11.896Z,10.70
2019-05-22T04:23:33.219Z,11.00
2019-05-22T04:25:53.729Z,11.10
2019-05-22T04:28:14.474Z,11.10
2019-05-22T04:30:35.830Z,11.20
2019-05-22T04:32:56.722Z,11.30
2019-05-22T04:35:19.042Z,11.20
2019-05-22T04:37:40.774Z,11.10
2019-05-22T04:40:24.621Z,11.00
2019-05-22T04:42:45.260Z,11.00
2019-05-22T04:45:12.248Z,11.00
2019-05-22T04:47:34.811Z,11.00
2019-05-22T04:50:06.915Z,11.00
2019-05-22T04:52:17.799Z,11.10
2019-05-22T04:54:38.763Z,11.10
2019-05-22T04:56:59.197Z,11.10
2019-05-22T04:59:19.811Z,11.10
2019-05-22T05:01:40.433Z,11.20
2019-05-22T05:04:01.482Z,11.30
2019-05-22T05:06:23.725Z,11.30
2019-05-22T05:08:44.484Z,11.50
2019-05-22T05:11:05.937Z,11.50
2019-05-22T05:13:25.984Z,11.50
2019-05-22T05:15:45.929Z,11.70
2019-05-22T05:18:06.620Z,11.80
2019-05-22T05:20:27.406Z,11.90
2019-05-22T05:22:49.185Z,11.80
2019-05-22T05:25:09.227Z,11.90
2019-05-22T05:27:31.770Z,12.00
2019-05-22T05:29:52.431Z,12.20
2019-05-22T05:32:13.415Z,12.40
2019-05-22T05:34:36.711Z,12.50
2019-05-22T05:36:57.968Z,12.70
2019-05-22T05:39:40.373Z,12.80
2019-05-22T05:42:00.941Z,12.80
2019-05-22T05:44:21.276Z,13.00
2019-05-22T05:46:41.603Z,13.10
2019-05-22T05:49:02.638Z,13.20
2019-05-22T05:51:23.501Z,13.30
2019-05-22T05:54:03.122Z,13.30
2019-05-22T05:56:25.010Z,13.40
2019-05-22T05:58:45.677Z,13.40
2019-05-22T06:01:19.012Z,13.60
2019-05-22T06:03:40.725Z,13.70
2019-05-22T06:06:04.690Z,13.70
2019-05-22T06:08:26.189Z,13.70
2019-05-22T06:10:55.694Z,13.70
2019-05-22T06:13:16.868Z,13.80
2019-05-22T06:15:47.922Z,13.90
2019-05-22T06:18:27.579Z,14.10
2019-05-22T06:21:03.204Z,14.20
2019-05-22T06:23:27.436Z,14.40
2019-05-22T06:25:47.673Z,14.50
2019-05-22T06:28:09.543Z,14.70
2019-05-22T06:30:42.216Z,14.80
2019-05-22T06:33:13.126Z,14.90
2019-05-22T06:35:36.201Z,15.10
2019-05-22T06:38:22.035Z,15.10
2019-05-22T06:40:43.464Z,15.30
2019-05-22T06:43:24.723Z,15.30
2019-05-22T06:45:45.018Z,15.40
2019-05-22T06:48:05.859Z,15.50
2019-05-22T06:50:26.270Z,15.60
2019-05-22T06:52:46.635Z,15.80
2019-05-22T06:55:07.562Z,16.10
2019-05-22T06:57:29.982Z,16.20
2019-05-22T07:00:10.773Z,16.30
2019-05-22T07:02:15.204Z,16.40
2019-05-22T07:04:38.077Z,16.80
2019-05-22T07:06:58.723Z,17.10
2019-05-22T07:09:19.209Z,17.40
2019-05-22T07:11:43.720Z,17.80
2019-05-22T07:14:03.841Z,18.00
2019-05-22T07:16:23.894Z,18.00
2019-05-22T07:18:44.241Z,18.30
2019-05-22T07:21:06.573Z,18.50
2019-05-22T07:23:27.670Z,19.00
2019-05-22T07:25:49.217Z,19.40
2019-05-22T07:28:09.762Z,19.20
2019-05-22T07:30:30.413Z,18.70
2019-05-22T07:32:51.349Z,18.50
2019-05-22T07:35:12.686Z,18.60
2019-05-22T07:37:35.312Z,18.80
2019-05-22T07:39:55.635Z,18.80
2019-05-22T07:42:16.046Z,19.00
2019-05-22T07:44:36.483Z,19.10
2019-05-22T07:46:57.444Z,19.20
2019-05-22T07:49:17.683Z,19.10
2019-05-22T07:51:52.022Z,19.00
2019-05-22T07:54:00.854Z,18.90
2019-05-22T07:56:22.932Z,18.80
2019-05-22T07:58:45.656Z,18.60
2019-05-22T08:01:07.991Z,18.60
2019-05-22T08:03:30.227Z,18.60
2019-05-22T08:05:55.015Z,18.80
2019-05-22T08:08:18.688Z,18.90
2019-05-22T08:10:38.121Z,19.10
2019-05-22T08:12:58.900Z,19.40
2019-05-22T08:15:21.350Z,19.50
2019-05-22T08:17:42.548Z,19.60
2019-05-22T08:20:02.993Z,20.30
2019-05-22T08:22:23.325Z,20.50
2019-05-22T08:24:44.440Z,20.50
2019-05-22T08:27:05.182Z,20.60
2019-05-22T08:29:26.254Z,21.00
2019-05-22T08:31:47.145Z,21.20
2019-05-22T08:34:09.923Z,21.40
2019-05-22T08:36:31.196Z,21.40
2019-05-22T08:38:51.614Z,20.80
2019-05-22T08:41:13.591Z,20.30
2019-05-22T08:43:55.833Z,20.30
2019-05-22T08:45:57.746Z,20.40
2019-05-22T08:48:19.580Z,20.30
2019-05-22T08:50:41.797Z,20.20
2019-05-22T08:53:02.315Z,20.10
2019-05-22T08:55:22.878Z,20.00
2019-05-22T08:57:44.797Z,20.00
2019-05-22T09:00:12.469Z,20.00
2019-05-22T09:02:32.671Z,19.90
2019-05-22T09:04:53.030Z,20.00
2019-05-22T09:07:13.892Z,19.90
2019-05-22T09:09:34.589Z,19.90
2019-05-22T09:11:54.889Z,20.00
2019-05-22T09:14:15.293Z,20.10
2019-05-22T09:16:35.511Z,20.10
2019-05-22T09:18:56.663Z,20.00
2019-05-22T09:21:17.318Z,20.10
2019-05-22T09:23:37.709Z,20.10
2019-05-22T09:26:00.173Z,20.40
2019-05-22T09:28:20.780Z,20.50
2019-05-22T09:30:41.277Z,20.70
2019-05-22T09:33:01.896Z,20.60
2019-05-22T09:35:22.491Z,20.70
2019-05-22T09:37:42.780Z,20.60
2019-05-22T09:40:04.060Z,20.50
2019-05-22T09:42:25.558Z,20.60
2019-05-22T09:44:45.725Z,20.60
2019-05-22T09:47:06.309Z,20.60
2019-05-22T09:49:26.506Z,20.50
2019-05-22T09:51:46.782Z,20.60
2019-05-22T09:54:07.584Z,20.60
2019-05-22T09:56:29.763Z,20.90
2019-05-22T09:58:49.891Z,21.40
2019-05-22T10:01:12.135Z,21.90
2019-05-22T10:03:33.539Z,21.90
2019-05-22T10:05:54.210Z,22.10
2019-05-22T10:08:15.087Z,22.50
2019-05-22T10:10:35.832Z,22.90
2019-05-22T10:12:56.716Z,23.40
2019-05-22T10:15:18.129Z,23.40
2019-05-22T10:17:41.531Z,23.50
2019-05-22T10:20:01.937Z,23.90
2019-05-22T10:22:22.422Z,23.50
2019-05-22T10:24:43.603Z,23.90
2019-05-22T10:27:05.366Z,24.30
2019-05-22T10:29:27.267Z,24.30
2019-05-22T10:31:47.367Z,24.20
2019-05-22T10:34:07.963Z,24.40
2019-05-22T10:36:28.933Z,24.40
2019-05-22T10:38:48.939Z,24.20
2019-05-22T10:41:09.212Z,23.90
2019-05-22T10:43:29.339Z,23.40
2019-05-22T10:45:49.772Z,22.80
2019-05-22T10:48:10.601Z,22.70
2019-05-22T10:50:30.640Z,22.60
2019-05-22T10:52:54.675Z,22.50
2019-05-22T10:55:15.343Z,22.30
2019-05-22T10:57:40.420Z,22.30
2019-05-22T10:59:58.406Z,22.30
2019-05-22T11:02:20.035Z,22.20
2019-05-22T11:04:41.297Z,22.20
2019-05-22T11:07:03.003Z,22.10
2019-05-22T11:09:24.260Z,22.20
2019-05-22T11:11:44.857Z,22.10
2019-05-22T11:14:09.495Z,21.90
2019-05-22T11:16:28.797Z,21.90
2019-05-22T11:18:49.550Z,21.90
2019-05-22T11:21:12.047Z,21.80
2019-05-22T11:23:48.690Z,22.00
2019-05-22T11:25:55.355Z,22.20
2019-05-22T11:28:15.676Z,22.10
2019-05-22T11:30:35.956Z,22.00
2019-05-22T11:32:56.885Z,22.00
2019-05-22T11:35:18.825Z,21.90
2019-05-22T11:37:40.087Z,21.70
2019-05-22T11:40:00.877Z,21.70
2019-05-22T11:42:21.796Z,21.70
2019-05-22T11:44:42.493Z,21.70
2019-05-22T11:47:03.386Z,21.70
2019-05-22T11:49:23.993Z,21.80
2019-05-22T11:51:44.963Z,22.00
2019-05-22T11:54:09.298Z,22.10
2019-05-22T11:56:27.203Z,22.30
2019-05-22T11:58:47.604Z,22.20
2019-05-22T12:01:08.785Z,22.20
2019-05-22T12:03:34.739Z,22.50
2019-05-22T12:05:55.538Z,22.80
2019-05-22T12:08:16.422Z,22.90
2019-05-22T12:10:37.873Z,22.80
2019-05-22T12:12:58.916Z,22.70
2019-05-22T12:15:22.255Z,22.60
2019-05-22T12:17:43.211Z,22.90
2019-05-22T12:20:06.695Z,22.80
2019-05-22T12:22:27.631Z,22.80
2019-05-22T12:24:47.899Z,22.40
2019-05-22T12:27:08.324Z,22.10
2019-05-22T12:29:28.959Z,21.90
2019-05-22T12:31:49.294Z,22.00
2019-05-22T12:34:09.667Z,22.20
2019-05-22T12:36:30.302Z,22.80
2019-05-22T12:38:51.200Z,22.80
2019-05-22T12:41:13.269Z,22.80
2019-05-22T12:43:34.245Z,23.00
2019-05-22T12:45:54.831Z,23.00
2019-05-22T12:48:15.892Z,22.90
2019-05-22T12:50:37.164Z,22.70
2019-05-22T12:52:58.799Z,22.50
2019-05-22T12:55:20.548Z,22.20
2019-05-22T12:57:41.035Z,22.20
2019-05-22T13:00:02.748Z,22.20
2019-05-22T13:02:24.596Z,22.30
2019-05-22T13:04:45.873Z,22.20
2019-05-22T13:07:06.498Z,22.30
2019-05-22T13:09:29.239Z,22.20
2019-05-22T13:11:50.393Z,22.10
2019-05-22T13:14:10.952Z,22.10
2019-05-22T13:16:32.838Z,22.00
2019-05-22T13:18:53.755Z,21.80
2019-05-22T13:21:18.666Z,21.90
2019-05-22T13:23:42.004Z,21.90
2019-05-22T13:26:04.405Z,21.80
2019-05-22T13:28:28.449Z,21.80
2019-05-22T13:30:52.802Z,21.80
2019-05-22T13:33:17.809Z,21.80
2019-05-22T13:35:40.429Z,21.80
2019-05-22T13:38:00.982Z,21.70
2019-05-22T13:40:27.599Z,21.50
2019-05-22T13:42:43.566Z,21.50
2019-05-22T13:45:05.061Z,21.50
2019-05-22T13:47:25.268Z,21.50
2019-05-22T13:49:45.809Z,21.30
2019-05-22T13:52:06.563Z,21.20
2019-05-22T13:54:27.393Z,21.20
2019-05-22T13:56:47.784Z,21.10
2019-05-22T13:59:08.368Z,21.10
2019-05-22T14:01:28.706Z,21.20
2019-05-22T14:03:49.029Z,21.00
2019-05-22T14:06:09.537Z,20.80
2019-05-22T14:08:29.916Z,20.90
2019-05-22T14:10:51.858Z,21.00
2019-05-22T14:13:12.639Z,21.00
2019-05-22T14:15:49.965Z,21.10
2019-05-22T14:17:55.584Z,20.90
2019-05-22T14:20:18.034Z,20.90
2019-05-22T14:22:38.497Z,20.80
2019-05-22T14:24:58.712Z,20.80
2019-05-22T14:27:18.756Z,20.90
2019-05-22T14:29:39.096Z,20.90
2019-05-22T14:31:59.595Z,21.00
2019-05-22T14:34:20.142Z,21.10
2019-05-22T14:36:40.996Z,21.10
2019-05-22T14:39:02.116Z,21.00
2019-05-22T14:41:23.966Z,21.00
2019-05-22T14:43:44.657Z,21.10
2019-05-22T14:46:04.871Z,21.10
2019-05-22T14:48:25.348Z,21.30
2019-05-22T14:50:46.126Z,21.50
2019-05-22T14:53:06.818Z,21.90
2019-05-22T14:55:27.982Z,21.90
2019-05-22T14:57:48.472Z,21.60
2019-05-22T15:00:11.219Z,21.50
2019-05-22T15:02:31.779Z,21.50
2019-05-22T15:04:52.043Z,21.50
2019-05-22T15:07:12.574Z,21.60
2019-05-22T15:09:33.143Z,21.70
2019-05-22T15:11:53.695Z,21.90
2019-05-22T15:14:14.011Z,21.90
2019-05-22T15:16:34.500Z,21.90
2019-05-22T15:18:54.898Z,22.20
2019-05-22T15:21:16.351Z,21.90
2019-05-22T15:23:37.291Z,21.60
2019-05-22T15:25:57.800Z,21.50
2019-05-22T15:28:18.254Z,21.90
2019-05-22T15:30:39.807Z,22.20
2019-05-22T15:33:01.115Z,22.10
2019-05-22T15:35:21.175Z,22.00
2019-05-22T15:37:43.100Z,21.80
2019-05-22T15:40:04.415Z,21.50
2019-05-22T15:42:39.746Z,21.40
2019-05-22T15:45:01.251Z,21.10
2019-05-22T15:47:21.736Z,20.90
2019-05-22T15:49:44.348Z,20.70
2019-05-22T15:52:08.951Z,20.70
2019-05-22T15:54:30.641Z,20.70
2019-05-22T15:56:51.262Z,20.50
2019-05-22T15:59:13.809Z,20.40
2019-05-22T16:01:36.179Z,20.20
2019-05-22T16:03:57.195Z,20.20
2019-05-22T16:06:18.349Z,20.30
2019-05-22T16:08:39.491Z,20.20
2019-05-22T16:11:02.115Z,20.20
2019-05-22T16:13:25.204Z,20.10
2019-05-22T16:15:46.300Z,20.00
2019-05-22T16:18:11.883Z,20.00
2019-05-22T16:20:31.202Z,19.90
2019-05-22T16:22:51.969Z,19.90
2019-05-22T16:25:12.907Z,19.80
2019-05-22T16:27:33.667Z,19.80
2019-05-22T16:29:55.546Z,19.80
2019-05-22T16:32:17.674Z,19.90
2019-05-22T16:34:40.634Z,19.90
2019-05-22T16:37:03.941Z,20.00
2019-05-22T16:39:23.829Z,20.10
2019-05-22T16:41:46.383Z,20.10
2019-05-22T16:44:07.531Z,20.00
2019-05-22T16:46:27.929Z,19.80
2019-05-22T16:48:49.316Z,19.60
2019-05-22T16:51:11.809Z,19.60
2019-05-22T16:53:32.171Z,19.60
2019-05-22T16:55:52.700Z,19.40
2019-05-22T16:58:14.900Z,19.30
2019-05-22T17:00:35.614Z,19.20
2019-05-22T17:02:56.667Z,19.10
2019-05-22T17:05:18.561Z,19.10
2019-05-22T17:07:40.057Z,19.00
2019-05-22T17:10:02.299Z,18.90
2019-05-22T17:12:23.310Z,18.80
2019-05-22T17:14:44.637Z,18.80
2019-05-22T17:17:05.419Z,18.80
2019-05-22T17:19:27.497Z,18.60
2019-05-22T17:21:47.326Z,18.60
2019-05-22T17:24:11.548Z,18.50
2019-05-22T17:26:32.163Z,18.50
2019-05-22T17:28:52.661Z,18.40
2019-05-22T17:31:13.170Z,18.30
2019-05-22T17:33:34.395Z,18.30
2019-05-22T17:35:55.921Z,18.30
2019-05-22T17:38:17.777Z,18.20
2019-05-22T17:40:39.929Z,18.30
2019-05-22T17:43:01.364Z,18.20
2019-05-22T17:45:28.217Z,18.20
2019-05-22T17:47:50.280Z,18.10
2019-05-22T17:50:26.258Z,18.00
2019-05-22T17:52:35.556Z,18.00
2019-05-22T17:54:55.826Z,17.90
2019-05-22T17:57:16.662Z,17.90
2019-05-22T17:59:37.425Z,17.80
2019-05-22T18:01:57.997Z,17.70
2019-05-22T18:04:18.559Z,17.70
2019-05-22T18:06:39.009Z,17.60
2019-05-22T18:08:59.524Z,17.50
2019-05-22T18:11:19.835Z,17.50
2019-05-22T18:13:59.622Z,17.40
2019-05-22T18:16:21.782Z,17.30
2019-05-22T18:18:42.403Z,17.30
2019-05-22T18:21:03.508Z,17.10
2019-05-22T18:23:24.341Z,17.10
2019-05-22T18:25:45.947Z,17.00
2019-05-22T18:28:07.445Z,17.00
2019-05-22T18:30:28.877Z,16.90
2019-05-22T18:32:49.198Z,16.80
2019-05-22T18:35:10.570Z,16.70
2019-05-22T18:37:30.946Z,16.70
2019-05-22T18:39:51.543Z,16.70
2019-05-22T18:42:12.697Z,16.60
2019-05-22T18:44:33.141Z,16.50
2019-05-22T18:46:53.460Z,16.50
2019-05-22T18:49:13.708Z,16.40
2019-05-22T18:51:34.105Z,16.40
2019-05-22T18:53:54.751Z,16.30
2019-05-22T18:56:15.237Z,16.20
2019-05-22T18:58:35.497Z,16.30
2019-05-22T19:00:55.867Z,16.10
2019-05-22T19:03:16.715Z,16.10
2019-05-22T19:05:37.541Z,16.00
2019-05-22T19:07:58.178Z,16.00
2019-05-22T19:10:19.736Z,16.00
2019-05-22T19:12:40.066Z,15.90
2019-05-22T19:15:00.360Z,15.80
2019-05-22T19:17:21.131Z,15.70
2019-05-22T19:19:41.737Z,15.80
2019-05-22T19:22:02.430Z,15.80
2019-05-22T19:24:23.125Z,15.80
2019-05-22T19:26:43.445Z,15.80
2019-05-22T19:29:04.636Z,15.80
2019-05-22T19:31:25.293Z,15.70
2019-05-22T19:33:45.547Z,15.70
2019-05-22T19:36:06.264Z,15.70
2019-05-22T19:38:26.791Z,15.70
2019-05-22T19:40:47.282Z,15.70
2019-05-22T19:43:07.694Z,15.60
2019-05-22T19:45:30.895Z,15.60
2019-05-22T19:47:52.801Z,15.60
2019-05-22T19:50:22.688Z,15.60
2019-05-22T19:52:41.449Z,15.50
2019-05-22T19:55:00.228Z,15.50
2019-05-22T19:57:20.783Z,15.50
2019-05-22T19:59:41.669Z,15.50
2019-05-22T20:02:04.606Z,15.40
2019-05-22T20:04:25.595Z,15.40
2019-05-22T20:06:45.564Z,15.40
2019-05-22T20:09:09.025Z,15.30
2019-05-22T20:11:29.100Z,15.30
2019-05-22T20:13:49.257Z,15.30
2019-05-22T20:16:09.638Z,15.30
2019-05-22T20:18:29.795Z,15.30
2019-05-22T20:20:50.578Z,15.20
2019-05-22T20:23:12.130Z,15.20
2019-05-22T20:25:32.807Z,15.20
2019-05-22T20:27:53.249Z,14.90
2019-05-22T20:30:15.776Z,15.00
2019-05-22T20:32:37.613Z,15.00
2019-05-22T20:34:58.140Z,15.00
2019-05-22T20:37:18.706Z,15.00
2019-05-22T20:39:39.373Z,14.90
2019-05-22T20:42:00.406Z,14.60
2019-05-22T20:44:22.436Z,14.50
2019-05-22T20:46:45.756Z,14.30
2019-05-22T20:49:09.063Z,14.30
2019-05-22T20:51:29.086Z,14.30
2019-05-22T20:53:54.149Z,14.20
2019-05-22T20:56:12.840Z,14.30
2019-05-22T20:58:33.898Z,14.10
2019-05-22T21:00:55.370Z,14.00
2019-05-22T21:03:17.297Z,14.00
2019-05-22T21:05:38.697Z,14.00
2019-05-22T21:08:02.011Z,14.00
2019-05-22T21:10:23.337Z,14.00
2019-05-22T21:12:45.060Z,14.00
2019-05-22T21:15:06.757Z,13.90
2019-05-22T21:17:28.631Z,14.10
2019-05-22T21:19:49.292Z,14.20
2019-05-22T21:22:11.357Z,14.20
2019-05-22T21:24:32.122Z,14.00
2019-05-22T21:26:52.834Z,14.10
2019-05-22T21:29:13.328Z,14.00
2019-05-22T21:31:34.462Z,14.00
2019-05-22T21:33:55.972Z,14.00
2019-05-22T21:36:16.368Z,14.00
2019-05-22T21:38:39.659Z,13.90
2019-05-22T21:41:00.079Z,13.80
2019-05-22T21:43:20.649Z,13.90
2019-05-22T21:45:40.959Z,13.90
2019-05-22T21:48:02.088Z,13.80
2019-05-22T21:50:24.048Z,13.70
2019-05-22T21:52:44.769Z,13.40
2019-05-22T21:55:09.640Z,13.40
2019-05-22T21:57:30.113Z,13.40
2019-05-22T21:59:51.297Z,13.10
2019-05-22T22:02:25.506Z,13.00
2019-05-22T22:04:45.798Z,13.00
2019-05-22T22:07:06.873Z,13.00
2019-05-22T22:09:27.647Z,12.90
2019-05-22T22:11:48.859Z,12.70
2019-05-22T22:14:09.867Z,12.70
2019-05-22T22:16:30.929Z,12.70
2019-05-22T22:18:51.749Z,12.70
2019-05-22T22:21:13.533Z,12.70
2019-05-22T22:23:34.071Z,12.80
2019-05-22T22:25:54.517Z,12.80
2019-05-22T22:28:16.374Z,12.60
2019-05-22T22:30:38.558Z,12.60
2019-05-22T22:33:02.022Z,12.70
2019-05-22T22:35:23.245Z,12.70
2019-05-22T22:37:43.980Z,12.60
2019-05-22T22:40:04.857Z,12.60
2019-05-22T22:42:29.124Z,12.50
2019-05-22T22:44:52.447Z,12.30
2019-05-22T22:47:20.785Z,12.40
2019-05-22T22:49:42.920Z,12.20
2019-05-22T22:52:06.437Z,12.30
2019-05-22T22:54:28.030Z,12.30
2019-05-22T22:56:49.520Z,12.40
2019-05-22T22:59:11.757Z,12.40
2019-05-22T23:01:33.820Z,12.40
2019-05-22T23:03:57.007Z,12.40
2019-05-22T23:06:17.592Z,12.30
2019-05-22T23:08:37.814Z,12.10
2019-05-22T23:10:58.732Z,12.10
2019-05-22T23:13:19.492Z,12.00
2019-05-22T23:15:40.198Z,11.90
2019-05-22T23:18:02.182Z,12.10
2019-05-22T23:20:21.704Z,12.00
2019-05-22T23:22:40.590Z,12.00
2019-05-22T23:25:03.433Z,12.00
2019-05-22T23:27:25.272Z,12.00
2019-05-22T23:29:46.078Z,12.10
2019-05-22T23:32:08.702Z,12.00
2019-05-22T23:34:29.335Z,12.00
2019-05-22T23:36:50.341Z,11.90
2019-05-22T23:39:12.923Z,11.90
2019-05-22T23:41:34.486Z,12.00
2019-05-22T23:43:55.631Z,12.00
2019-05-22T23:46:17.744Z,12.00
2019-05-22T23:48:37.929Z,12.00
2019-05-22T23:50:58.650Z,12.00
2019-05-22T23:53:20.738Z,12.00
2019-05-22T23:55:43.273Z,12.10
2019-05-22T23:58:05.481Z,12.10
